Time;durP1;ratioP1;P1;durP2;ratioP2;P2;SDS_P1;SDS_P2;PMS_P1;PMS_P2;Temp;Humidity;BMP_temperature;BMP_pressure;BME280_temperature;BME280_humidity;BME280_pressure;Samples;Min_cycle;Max_cycle;Signal;HPM_P1;HPM_P2
2023/08/18 00:00:14;;;;;;;7.23;5.80;;;;;;;23.59;61.57;97067.41;5067851;28;20210;-75
2023/08/18 00:02:43;;;;;;;9.07;5.70;;;;;;;23.84;61.07;97076.44;5069433;28;20740;-75
2023/08/18 00:05:10;;;;;;;8.07;5.70;;;;;;;23.83;61.29;97075.59;5069259;28;20693;-75
2023/08/18 00:07:37;;;;;;;7.50;5.37;;;;;;;23.83;61.28;97075.59;5069225;28;20259;-74
2023/08/18 00:10:04;;;;;;;8.53;5.40;;;;;;;23.61;61.36;97076.03;5068149;28;20192;-77
2023/08/18 00:12:32;;;;;;;7.10;5.07;;;;;;;23.61;61.45;97076.03;5067953;28;20209;-75
2023/08/18 00:14:59;;;;;;;8.57;5.60;;;;;;;23.60;61.25;97057.66;5069159;28;20716;-77
2023/08/18 00:17:26;;;;;;;7.43;5.73;;;;;;;23.48;61.22;97077.34;5069258;28;20797;-76
2023/08/18 00:19:54;;;;;;;8.33;5.67;;;;;;;23.44;61.43;97059.16;5067843;28;20221;-76
2023/08/18 00:22:21;;;;;;;7.47;6.00;;;;;;;23.43;62.04;97077.81;5068766;28;20218;-75
2023/08/18 00:24:48;;;;;;;9.17;6.37;;;;;;;23.49;62.14;97079.88;5069040;28;20194;-75
2023/08/18 00:27:15;;;;;;;9.97;6.67;;;;;;;23.25;62.80;97066.31;5069084;28;20699;-74
2023/08/18 00:29:42;;;;;;;8.20;6.00;;;;;;;23.03;63.63;97069.38;5068975;28;20207;-76
2023/08/18 00:32:09;;;;;;;7.70;6.40;;;;;;;22.96;64.52;97073.56;5067448;28;20197;-74
2023/08/18 00:34:37;;;;;;;6.27;5.57;;;;;;;22.83;65.35;97067.78;5067150;28;20585;-75
2023/08/18 00:37:04;;;;;;;8.37;6.07;;;;;;;22.62;65.27;97055.63;5068622;28;20228;-75
2023/08/18 00:39:31;;;;;;;8.70;6.17;;;;;;;22.80;65.78;97062.78;5068929;28;20274;-76
2023/08/18 00:41:58;;;;;;;8.27;6.00;;;;;;;22.88;65.76;97068.16;5068476;28;20210;-76
2023/08/18 00:44:26;;;;;;;9.57;5.97;;;;;;;22.99;65.39;97058.28;5067385;28;20197;-78
2023/08/18 00:46:53;;;;;;;10.20;6.73;;;;;;;22.99;65.16;97068.00;5067313;28;20735;-77
2023/08/18 00:49:21;;;;;;;8.33;6.70;;;;;;;22.82;65.90;97066.09;5067094;28;20202;-76
2023/08/18 00:51:49;;;;;;;7.57;6.23;;;;;;;22.70;66.57;97072.53;5067005;28;20195;-74
2023/08/18 00:54:17;;;;;;;7.97;6.70;;;;;;;22.63;66.61;97067.00;5068426;28;20226;-75
2023/08/18 00:56:46;;;;;;;9.67;6.60;;;;;;;22.54;66.80;97068.69;5066698;28;20328;-76
2023/08/18 00:59:13;;;;;;;10.27;6.70;;;;;;;22.38;67.55;97057.88;5066919;28;20275;-76
2023/08/18 01:01:42;;;;;;;10.13;6.90;;;;;;;22.27;67.60;97065.13;5068429;28;20189;-75
2023/08/18 01:04:12;;;;;;;8.83;6.93;;;;;;;21.83;69.01;97058.63;5067054;28;20187;-76
2023/08/18 01:06:40;;;;;;;8.93;7.10;;;;;;;22.05;68.38;97071.53;5049562;28;20621;-76
2023/08/18 01:09:07;;;;;;;10.73;7.50;;;;;;;21.98;68.98;97051.97;5067669;28;20190;-75
2023/08/18 01:12:10;;;;;;;15.80;9.13;;;;;;;22.02;69.18;97065.69;5067217;28;20187;-75
2023/08/18 01:14:55;;;;;;;16.40;11.03;;;;;;;22.05;69.37;97065.44;5048460;28;20572;-76
2023/08/18 01:17:27;;;;;;;17.77;10.40;;;;;;;22.15;68.98;97067.09;5066725;28;20191;-75
2023/08/18 01:19:55;;;;;;;15.43;9.00;;;;;;;22.16;68.69;97066.09;5066858;28;20209;-81
2023/08/18 01:22:24;;;;;;;15.73;9.23;;;;;;;22.13;68.71;97065.56;5067836;28;20196;-75
2023/08/18 01:24:58;;;;;;;12.90;9.70;;;;;;;22.23;68.30;97067.22;5067748;28;20192;-74
2023/08/18 01:27:30;;;;;;;18.20;10.13;;;;;;;22.50;66.94;97077.84;5066706;28;20195;-79
2023/08/18 01:29:58;;;;;;;16.07;10.27;;;;;;;22.50;67.06;97063.84;5066416;28;20242;-75
2023/08/18 01:32:33;;;;;;;13.30;9.77;;;;;;;22.43;67.36;97071.47;5067796;28;20931;-81
2023/08/18 01:35:01;;;;;;;16.70;11.03;;;;;;;22.08;68.32;97071.25;5067299;28;20687;-77
2023/08/18 01:37:30;;;;;;;19.83;11.43;;;;;;;22.16;68.42;97066.09;5066069;28;20224;-75
2023/08/18 01:39:59;;;;;;;16.90;11.40;;;;;;;22.00;68.39;97065.84;5066243;28;20187;-80
2023/08/18 01:42:28;;;;;;;18.87;11.47;;;;;;;22.25;67.66;97067.06;5067568;28;20211;-79
2023/08/18 01:45:03;;;;;;;27.80;13.50;;;;;;;22.48;66.73;97063.94;5067506;28;20195;-73
2023/08/18 01:47:31;;;;;;;19.90;11.67;;;;;;;22.53;66.44;97067.00;5067385;28;20280;-74
2023/08/18 01:49:58;;;;;;;16.07;10.93;;;;;;;22.23;66.74;97054.03;5066912;28;20213;-74
2023/08/18 01:52:25;;;;;;;16.33;10.67;;;;;;;22.13;67.77;97076.97;5067586;28;20273;-74
2023/08/18 01:54:52;;;;;;;15.77;10.20;;;;;;;21.90;68.52;97064.19;5065898;28;20190;-75
2023/08/18 01:57:19;;;;;;;15.43;9.67;;;;;;;21.75;69.31;97067.19;5067394;28;20571;-75
2023/08/18 01:59:47;;;;;;;13.63;9.83;;;;;;;21.71;69.51;97068.44;5065784;28;20214;-75
2023/08/18 02:02:14;;;;;;;12.07;8.67;;;;;;;21.74;69.33;97070.78;5049291;28;20624;-76
2023/08/18 02:04:41;;;;;;;12.73;8.23;;;;;;;21.78;69.44;97074.00;5066721;28;20226;-75
2023/08/18 02:07:08;;;;;;;11.27;7.63;;;;;;;21.58;69.79;97059.13;5065816;28;20261;-74
2023/08/18 02:09:39;;;;;;;13.33;8.87;;;;;;;21.50;70.01;97053.72;5067002;28;20303;-78
2023/08/18 02:12:06;;;;;;;13.60;8.10;;;;;;;21.38;70.50;97062.69;5067053;28;20607;-86
2023/08/18 02:14:34;;;;;;;15.47;8.60;;;;;;;21.42;70.36;97061.47;5067178;28;20785;-82
2023/08/18 02:17:01;;;;;;;12.67;8.10;;;;;;;21.28;71.07;97064.50;5065564;28;20219;-81
2023/08/18 02:19:28;;;;;;;10.87;7.60;;;;;;;21.25;70.86;97064.75;5067061;28;20547;-83
2023/08/18 02:21:55;;;;;;;9.10;7.57;;;;;;;21.16;70.99;97058.50;5067373;28;20210;-83
2023/08/18 02:24:22;;;;;;;10.97;8.33;;;;;;;21.24;70.97;97048.13;5067377;28;20193;-85
2023/08/18 02:26:49;;;;;;;9.80;8.10;;;;;;;21.21;70.78;97058.09;5067081;28;20265;-79
2023/08/18 02:29:16;;;;;;;10.70;8.27;;;;;;;21.32;70.15;97053.56;5066865;28;20232;-78
2023/08/18 02:31:46;;;;;;;11.47;8.53;;;;;;;21.07;70.79;97056.66;5049548;28;20694;-75
2023/08/18 02:34:14;;;;;;;11.30;7.80;;;;;;;21.22;70.55;97051.84;5067526;28;20604;-79
2023/08/18 02:36:40;;;;;;;8.80;7.27;;;;;;;21.13;70.69;97055.28;5066883;28;20225;-76
2023/08/18 02:39:07;;;;;;;10.40;7.60;;;;;;;21.15;70.46;97058.63;5068227;28;20193;-79
2023/08/18 02:41:34;;;;;;;9.03;6.67;;;;;;;21.20;70.32;97049.38;5072748;28;20206;-77
2023/08/18 02:44:03;;;;;;;11.27;7.67;;;;;;;21.35;69.78;97061.16;5071273;28;20263;-85
2023/08/18 02:46:30;;;;;;;7.83;7.00;;;;;;;21.26;70.20;97055.88;5068872;28;20201;-85
2023/08/18 02:48:57;;;;;;;11.50;7.47;;;;;;;21.35;69.77;97057.72;5048942;28;20648;-77
2023/08/18 02:51:24;;;;;;;8.20;7.07;;;;;;;21.18;70.06;97038.13;5065158;28;20228;-75
2023/08/18 02:53:53;;;;;;;7.33;6.40;;;;;;;21.08;70.91;97054.88;5066120;28;20189;-75
2023/08/18 02:56:20;;;;;;;8.97;7.10;;;;;;;21.01;70.58;97046.66;5065192;28;20224;-76
2023/08/18 02:58:47;;;;;;;9.47;7.00;;;;;;;21.02;70.88;97058.84;5066939;28;20580;-76
2023/08/18 03:01:14;;;;;;;8.07;7.20;;;;;;;21.36;69.87;97052.31;5070618;28;20193;-84
2023/08/18 03:03:41;;;;;;;11.30;7.33;;;;;;;21.60;68.88;97060.66;5072708;28;20187;-83
2023/08/18 03:06:08;;;;;;;15.47;8.20;;;;;;;21.32;69.42;97047.44;5067307;28;20657;-84
2023/08/18 03:08:36;;;;;;;9.30;7.80;;;;;;;21.39;69.78;97059.13;5066952;28;20202;-84
2023/08/18 03:11:03;;;;;;;11.73;7.23;;;;;;;21.44;69.52;97064.78;5065732;28;20182;-86
2023/08/18 03:13:31;;;;;;;10.47;7.50;;;;;;;21.63;68.78;97059.56;5065189;28;20195;-86
2023/08/18 03:15:58;;;;;;;11.03;7.57;;;;;;;21.64;68.21;97062.03;5064552;28;20232;-86
2023/08/18 03:18:26;;;;;;;10.53;7.93;;;;;;;21.47;68.83;97064.53;5065093;28;20750;-90
2023/08/18 03:21:00;;;;;;;12.27;9.20;;;;;;;21.29;69.68;97061.72;5065687;28;20178;-85
2023/08/18 03:23:29;;;;;;;13.33;9.00;;;;;;;21.43;69.13;97068.41;5065993;28;20182;-91
2023/08/18 03:26:02;;;;;;;12.27;8.47;;;;;;;21.45;68.92;97061.22;5065736;28;20188;-90
2023/08/18 03:28:31;;;;;;;12.17;9.10;;;;;;;21.41;68.48;97054.53;5048899;28;20745;-89
2023/08/18 03:31:06;;;;;;;18.30;9.30;;;;;;;21.57;68.18;97066.22;5066612;28;20191;-89
2023/08/18 03:33:34;;;;;;;11.93;8.10;;;;;;;21.52;68.47;97068.41;5068761;28;20240;-86
2023/08/18 03:36:04;;;;;;;12.20;8.53;;;;;;;21.48;68.69;97068.81;5068673;28;20227;-82
2023/08/18 03:38:31;;;;;;;11.10;8.60;;;;;;;21.48;68.57;97074.94;5068999;28;20222;-86
2023/08/18 03:41:01;;;;;;;11.13;8.17;;;;;;;21.26;69.59;97080.44;5068894;28;20193;-89
2023/08/18 03:43:28;;;;;;;11.30;7.57;;;;;;;21.25;69.62;97080.56;5068998;28;20186;-87
2023/08/18 03:45:59;;;;;;;9.30;7.87;;;;;;;21.24;69.70;97074.47;5052526;28;20212;-89
2023/08/18 03:48:27;;;;;;;13.83;9.03;;;;;;;21.40;68.96;97073.94;5068602;28;20198;-81
2023/08/18 03:50:57;;;;;;;11.30;8.47;;;;;;;21.05;69.05;97038.38;5067770;28;20206;-88
2023/08/18 03:53:24;;;;;;;9.37;7.47;;;;;;;21.25;68.62;97043.66;5068404;28;20190;-87
2023/08/18 03:55:53;;;;;;;10.83;7.57;;;;;;;21.22;68.10;97043.97;5051742;28;20621;-87
2023/08/18 03:58:20;;;;;;;11.03;7.20;;;;;;;21.41;67.73;97070.34;5070041;28;20238;-86
2023/08/18 04:00:47;;;;;;;11.50;6.97;;;;;;;21.45;67.55;97067.28;5068575;28;20188;-88
2023/08/18 04:03:14;;;;;;;10.17;8.13;;;;;;;21.46;67.92;97068.97;5068757;28;20203;-81
2023/08/18 04:05:46;;;;;;;9.13;7.50;;;;;;;21.61;66.87;97078.16;5068688;28;20273;-89
2023/08/18 04:08:15;;;;;;;12.27;8.20;;;;;;;21.53;67.58;97079.81;5067601;28;20195;-86
2023/08/18 04:10:42;;;;;;;14.87;8.10;;;;;;;21.70;67.02;97077.31;5068222;28;20192;-80
2023/08/18 04:13:09;;;;;;;10.23;8.03;;;;;;;21.65;66.80;97073.44;5069618;28;20187;-86
2023/08/18 04:15:36;;;;;;;13.87;8.40;;;;;;;21.67;66.67;97071.50;5068043;28;20186;-86
2023/08/18 04:18:04;;;;;;;12.43;8.73;;;;;;;21.87;66.45;97075.84;5071715;28;20712;-88
2023/08/18 04:20:31;;;;;;;9.03;7.80;;;;;;;22.07;65.33;97063.50;5051913;28;20602;-84
2023/08/18 04:22:58;;;;;;;11.27;8.33;;;;;;;22.02;65.59;97077.09;5069150;28;20755;-87
2023/08/18 04:25:26;;;;;;;10.83;7.63;;;;;;;22.20;64.94;97072.75;5069999;28;20696;-75
2023/08/18 04:27:56;;;;;;;9.40;7.97;;;;;;;22.43;64.34;97078.56;5049071;28;20184;-86
2023/08/18 04:30:23;;;;;;;12.53;7.80;;;;;;;21.97;65.06;97055.56;5068273;28;20244;-74
2023/08/18 04:32:50;;;;;;;11.37;8.23;;;;;;;22.16;65.25;97074.03;5067611;28;20179;-81
2023/08/18 04:35:18;;;;;;;10.37;7.63;;;;;;;22.62;64.11;97076.75;5068588;28;20188;-73
2023/08/18 04:37:45;;;;;;;8.37;6.87;;;;;;;22.69;62.76;97042.66;5067275;28;20255;-80
2023/08/18 04:40:12;;;;;;;7.60;6.80;;;;;;;22.89;62.45;97078.63;5050444;28;20598;-75
2023/08/18 04:42:39;;;;;;;12.33;7.90;;;;;;;22.87;62.78;97077.09;5068099;28;20243;-76
2023/08/18 04:45:08;;;;;;;9.30;6.47;;;;;;;23.08;62.45;97077.69;5066872;28;20697;-75
2023/08/18 04:47:35;;;;;;;10.33;7.53;;;;;;;23.28;62.42;97079.25;5066743;28;20220;-75
2023/08/18 04:50:04;;;;;;;11.77;6.70;;;;;;;23.23;61.57;97065.66;5050206;28;20216;-75
2023/08/18 04:52:32;;;;;;;12.10;6.90;;;;;;;23.69;61.55;97088.50;5050201;28;20196;-77
2023/08/18 04:54:59;;;;;;;9.30;6.77;;;;;;;23.80;61.13;97075.88;5050218;28;20656;-75
2023/08/18 04:57:26;;;;;;;10.77;6.60;;;;;;;23.64;61.15;97085.50;5066683;28;20275;-75
2023/08/18 04:59:53;;;;;;;11.87;6.43;;;;;;;23.11;62.72;97083.50;5066678;28;21305;-76
2023/08/18 05:02:20;;;;;;;10.97;7.00;;;;;;;22.80;63.60;97070.69;5066579;28;20670;-77
2023/08/18 05:04:47;;;;;;;9.83;7.17;;;;;;;23.21;62.80;97089.59;5066382;28;20193;-75
2023/08/18 05:07:14;;;;;;;10.73;6.50;;;;;;;22.53;64.42;97072.28;5068843;28;20190;-75
2023/08/18 05:09:41;;;;;;;9.93;6.90;;;;;;;23.16;63.72;97091.00;5067520;28;20200;-74
2023/08/18 05:12:09;;;;;;;11.40;7.03;;;;;;;23.68;62.12;97065.69;5066383;28;20206;-74
2023/08/18 05:14:36;;;;;;;8.70;6.67;;;;;;;23.95;61.16;97079.66;5067669;28;20194;-76
2023/08/18 05:17:03;;;;;;;9.10;6.70;;;;;;;23.56;62.62;97086.22;5066732;28;20223;-76
2023/08/18 05:19:30;;;;;;;12.17;6.77;;;;;;;23.35;62.85;97064.50;5067264;28;20199;-76
2023/08/18 05:21:58;;;;;;;8.73;6.80;;;;;;;23.27;63.54;97085.50;5061968;28;20233;-76
2023/08/18 05:24:25;;;;;;;9.23;6.53;;;;;;;23.54;63.49;97079.41;5052992;28;20208;-74
2023/08/18 05:26:52;;;;;;;13.17;7.70;;;;;;;23.87;62.05;97084.88;5067089;28;20206;-78
2023/08/18 05:29:19;;;;;;;11.57;6.10;;;;;;;23.75;62.25;97050.88;5067238;28;20261;-76
2023/08/18 05:31:48;;;;;;;6.97;6.17;;;;;;;24.01;62.19;97084.34;5063993;28;20212;-75
2023/08/18 05:34:15;;;;;;;7.03;5.73;;;;;;;23.65;63.00;97073.91;5060618;28;20234;-80
2023/08/18 05:36:42;;;;;;;9.97;6.10;;;;;;;23.52;63.37;97045.19;5047251;28;20231;-81
2023/08/18 05:39:09;;;;;;;6.13;5.53;;;;;;;23.90;62.84;97083.75;5062807;28;20268;-81
2023/08/18 05:41:36;;;;;;;7.47;5.70;;;;;;;23.74;64.08;97088.91;5066625;28;20196;-84
2023/08/18 05:44:04;;;;;;;7.30;5.93;;;;;;;23.89;63.22;97085.56;5066469;28;20252;-84
2023/08/18 05:46:31;;;;;;;9.47;6.07;;;;;;;23.92;63.36;97089.72;5066562;28;20188;-85
2023/08/18 05:48:58;;;;;;;6.63;5.83;;;;;;;24.21;62.33;97085.88;5064792;28;20286;-80
2023/08/18 05:51:25;;;;;;;8.27;5.90;;;;;;;24.27;62.10;97078.31;5064780;28;20315;-79
2023/08/18 05:53:52;;;;;;;7.20;5.80;;;;;;;24.39;61.67;97071.78;5063489;28;20202;-81
2023/08/18 05:56:19;;;;;;;7.27;6.13;;;;;;;24.61;61.17;97079.22;5065873;28;20289;-75
2023/08/18 05:58:47;;;;;;;21.00;5.60;;;;;;;24.95;60.28;97082.78;5065742;28;20212;-84
2023/08/18 06:01:14;;;;;;;7.33;5.80;;;;;;;25.40;58.38;97083.31;5066474;28;20703;-78
2023/08/18 06:03:42;;;;;;;9.30;5.77;;;;;;;25.50;57.79;97068.13;5064953;28;20575;-76
2023/08/18 06:06:09;;;;;;;7.87;5.50;;;;;;;25.85;57.16;97085.59;5064392;28;20255;-78
2023/08/18 06:08:36;;;;;;;7.67;5.60;;;;;;;26.02;56.27;97086.47;5066520;28;20182;-78
2023/08/18 06:11:03;;;;;;;7.30;5.63;;;;;;;26.21;55.40;97078.22;5064722;28;20181;-83
2023/08/18 06:13:30;;;;;;;9.43;5.80;;;;;;;26.43;54.22;97080.19;5065165;28;20193;-74
2023/08/18 06:16:04;;;;;;;10.10;6.30;;;;;;;26.45;53.94;97088.81;5066328;28;20255;-76
2023/08/18 06:18:33;;;;;;;7.70;5.87;;;;;;;26.60;53.16;97087.16;5063252;28;20565;-80
2023/08/18 06:21:01;;;;;;;7.83;5.70;;;;;;;26.43;52.80;97056.28;5066615;28;20221;-81
2023/08/18 06:23:28;;;;;;;14.37;7.13;;;;;;;26.79;52.17;97086.81;5066083;28;20275;-75
2023/08/18 06:25:56;;;;;;;6.37;5.73;;;;;;;26.63;51.93;97062.09;5066505;28;20189;-84
2023/08/18 06:28:25;;;;;;;8.37;5.20;;;;;;;27.16;50.62;97089.69;5067079;28;20189;-81
2023/08/18 06:30:52;;;;;;;5.60;4.70;;;;;;;27.20;49.70;97090.19;5066107;28;20207;-80
2023/08/18 06:33:20;;;;;;;7.67;5.20;;;;;;;27.69;50.31;97093.50;5064815;28;20710;-76
2023/08/18 06:35:49;;;;;;;9.50;5.50;;;;;;;27.42;50.01;97105.44;5050190;28;20193;-77
2023/08/18 06:38:16;;;;;;;7.03;4.77;;;;;;;27.54;49.84;97101.38;5068496;28;20275;-77
2023/08/18 06:40:45;;;;;;;6.40;4.70;;;;;;;27.32;49.73;97092.31;5065258;28;20193;-76
2023/08/18 06:43:12;;;;;;;5.57;4.00;;;;;;;27.43;49.39;97101.75;5067267;28;20227;-77
2023/08/18 06:45:42;;;;;;;6.97;4.90;;;;;;;27.69;48.96;97097.00;5065666;28;20197;-76
2023/08/18 06:48:09;;;;;;;5.80;4.70;;;;;;;27.87;48.34;97094.03;5066472;28;20653;-82
2023/08/18 06:50:36;;;;;;;10.57;5.10;;;;;;;28.00;47.02;97052.56;5066648;28;20226;-76
2023/08/18 06:53:04;;;;;;;12.73;7.73;;;;;;;28.62;46.08;97105.69;5066545;28;20189;-77
2023/08/18 06:55:31;;;;;;;11.40;5.67;;;;;;;28.52;44.70;97089.91;5065194;28;20208;-78
2023/08/18 06:58:14;;;;;;;7.47;4.80;;;;;;;28.55;44.83;97108.22;5065985;28;20726;-80
2023/08/18 07:00:41;;;;;;;8.30;5.83;;;;;;;28.74;44.28;97106.91;5066138;28;20191;-78
2023/08/18 07:03:08;;;;;;;6.20;5.27;;;;;;;28.76;44.74;97092.41;5065640;28;20196;-78
2023/08/18 07:05:35;;;;;;;14.33;9.17;;;;;;;28.95;44.28;97102.50;5066592;28;20256;-77
2023/08/18 07:08:03;;;;;;;7.60;5.47;;;;;;;29.04;44.51;97115.78;5069995;28;20193;-79
2023/08/18 07:10:30;;;;;;;7.97;4.60;;;;;;;29.05;43.77;97112.09;5069128;28;20528;-78
2023/08/18 07:12:57;;;;;;;7.67;4.47;;;;;;;29.39;42.75;97104.38;5070032;28;20204;-83
2023/08/18 07:15:24;;;;;;;6.17;4.33;;;;;;;29.21;42.40;97080.75;5069636;28;20673;-81
2023/08/18 07:17:51;;;;;;;8.50;4.57;;;;;;;29.42;43.13;97102.19;5069861;28;20205;-78
2023/08/18 07:20:23;;;;;;;4.73;3.83;;;;;;;29.51;41.90;97109.06;5068018;28;20201;-84
2023/08/18 07:22:50;;;;;;;9.47;5.10;;;;;;;29.61;42.27;97084.78;5068126;28;20309;-84
2023/08/18 07:25:17;;;;;;;9.63;4.13;;;;;;;29.53;42.53;97111.56;5068125;28;20250;-77
2023/08/18 07:27:45;;;;;;;9.67;4.27;;;;;;;29.38;42.79;97100.06;5069373;28;20205;-75
2023/08/18 07:30:12;;;;;;;4.53;4.07;;;;;;;29.40;41.67;97090.88;5069583;28;20186;-77
2023/08/18 07:32:39;;;;;;;6.07;3.93;;;;;;;29.53;41.26;97100.91;5069129;28;20274;-80
2023/08/18 07:35:08;;;;;;;4.90;3.67;;;;;;;29.30;41.75;97097.50;5069083;28;20292;-79
2023/08/18 07:37:36;;;;;;;6.23;5.50;;;;;;;29.59;41.44;97100.16;5068828;28;20236;-79
2023/08/18 07:40:22;;;;;;;5.73;4.13;;;;;;;29.22;42.40;97094.94;5069179;28;20190;-82
2023/08/18 07:42:49;;;;;;;6.53;4.17;;;;;;;29.63;42.35;97099.59;5069332;28;20222;-84
2023/08/18 07:45:16;;;;;;;10.30;5.00;;;;;;;30.00;42.11;97093.25;5068929;28;20275;-77
2023/08/18 07:47:44;;;;;;;7.87;4.07;;;;;;;30.13;41.76;97081.88;5069364;28;20626;-81
2023/08/18 07:50:12;;;;;;;8.27;5.03;;;;;;;30.48;41.97;97091.66;5067593;28;20537;-81
2023/08/18 07:52:41;;;;;;;4.73;4.10;;;;;;;30.26;41.68;97109.56;5068877;28;20193;-78
2023/08/18 07:55:09;;;;;;;7.77;4.80;;;;;;;29.65;42.65;97104.75;5068914;28;20188;-79
2023/08/18 07:57:37;;;;;;;10.47;5.07;;;;;;;29.80;41.79;97076.16;5068852;28;20244;-84
2023/08/18 08:00:16;;;;;;;5.57;3.87;;;;;;;29.93;41.65;97092.34;5067421;28;20203;-79
2023/08/18 08:02:44;;;;;;;4.33;3.60;;;;;;;29.66;42.20;97077.84;5068676;28;20186;-82
2023/08/18 08:05:12;;;;;;;7.47;4.03;;;;;;;30.02;42.38;97109.94;5067086;28;20296;-80
2023/08/18 08:08:19;;;;;;;7.73;4.00;;;;;;;30.00;41.16;97100.44;5087428;28;20197;-79
2023/08/18 08:11:40;;;;;;;7.27;4.00;;;;;;;30.09;41.73;97089.44;5048062;28;20220;-80
2023/08/18 08:15:01;;;;;;;4.43;4.00;;;;;;;29.90;41.38;97100.75;5047961;28;20630;-83
2023/08/18 08:18:22;;;;;;;8.67;5.30;;;;;;;29.95;43.10;97094.81;5032848;28;20282;-77
2023/08/18 08:21:42;;;;;;;4.17;3.37;;;;;;;29.72;41.22;97041.53;5045655;28;20194;-79
2023/08/18 08:25:03;;;;;;;5.70;3.90;;;;;;;30.01;42.03;97099.41;5045996;28;20216;-83
2023/08/18 08:28:24;;;;;;;8.97;4.00;;;;;;;30.03;41.78;97079.50;5047824;28;20197;-79
2023/08/18 08:31:45;;;;;;;6.07;3.73;;;;;;;30.40;40.78;97081.94;5032075;28;20691;-87
2023/08/18 08:35:09;;;;;;;7.03;4.50;;;;;;;30.42;40.81;97082.59;5047813;28;20318;-78
2023/08/18 08:38:29;;;;;;;7.83;3.80;;;;;;;30.18;40.93;97104.34;5084286;28;20241;-80
2023/08/18 08:41:50;;;;;;;6.07;3.83;;;;;;;30.12;41.94;97097.09;5079707;28;20190;-78
2023/08/18 08:45:11;;;;;;;6.47;3.93;;;;;;;30.41;41.54;97101.50;5046995;28;20556;-81
2023/08/18 08:48:31;;;;;;;8.67;5.53;;;;;;;30.10;41.61;97096.44;5061965;28;20653;-82
2023/08/18 08:51:52;;;;;;;5.30;3.57;;;;;;;29.65;42.65;97094.06;5050107;28;20288;-77
2023/08/18 08:54:38;;;;;;;5.53;4.20;;;;;;;29.78;42.69;97082.75;5053863;28;20201;-82
2023/08/18 08:57:09;;;;;;;6.43;4.60;;;;;;;30.13;42.24;97080.00;5061680;28;20239;-77
2023/08/18 08:59:36;;;;;;;8.87;4.23;;;;;;;30.32;41.45;97083.94;5056826;28;20197;-82
2023/08/18 09:02:05;;;;;;;9.40;4.50;;;;;;;30.33;42.07;97083.75;5065898;28;20744;-78
2023/08/18 09:04:32;;;;;;;5.67;4.20;;;;;;;30.27;40.96;97049.75;5071185;28;20186;-79
2023/08/18 09:06:59;;;;;;;8.03;4.13;;;;;;;30.37;41.29;97047.59;5070018;28;20186;-77
2023/08/18 09:09:26;;;;;;;9.43;5.00;;;;;;;30.83;41.15;97080.03;5069720;28;20190;-78
2023/08/18 09:11:59;;;;;;;6.70;4.60;;;;;;;30.93;40.30;97082.41;5067969;28;20185;-78
2023/08/18 09:14:27;;;;;;;9.97;5.00;;;;;;;30.94;41.26;97073.34;5068200;28;20246;-80
2023/08/18 09:16:54;;;;;;;7.87;4.73;;;;;;;31.07;40.31;97076.09;5066123;28;20583;-76
2023/08/18 09:19:22;;;;;;;7.80;4.70;;;;;;;31.12;40.17;97079.84;5067880;28;20204;-80
2023/08/18 09:21:50;;;;;;;7.83;4.33;;;;;;;31.02;41.02;97081.22;5068067;28;20840;-79
2023/08/18 09:24:22;;;;;;;7.03;4.60;;;;;;;30.65;40.78;97033.41;5068353;28;20684;-82
2023/08/18 09:26:49;;;;;;;6.70;5.17;;;;;;;30.53;41.67;97058.00;5068552;28;20204;-81
2023/08/18 09:29:17;;;;;;;7.87;6.13;;;;;;;30.24;42.40;97084.88;5048902;28;20197;-79
2023/08/18 09:31:47;;;;;;;7.50;4.77;;;;;;;29.64;42.81;97034.50;5066171;28;20204;-75
2023/08/18 09:34:21;;;;;;;5.37;3.93;;;;;;;30.10;43.49;97099.13;5067729;28;20193;-78
2023/08/18 09:36:53;;;;;;;9.07;4.70;;;;;;;30.04;43.68;97089.19;5067167;28;20220;-80
2023/08/18 09:39:20;;;;;;;8.43;4.20;;;;;;;30.04;43.61;97101.72;5047244;28;20670;-76
2023/08/18 09:41:51;;;;;;;6.87;4.70;;;;;;;29.94;44.13;97082.50;5046763;28;20288;-77
2023/08/18 09:44:24;;;;;;;5.20;4.33;;;;;;;29.64;44.02;97073.69;5091147;28;20198;-76
2023/08/18 09:46:59;;;;;;;7.60;4.13;;;;;;;29.90;44.05;97099.94;5067989;28;20178;-76
2023/08/18 09:49:27;;;;;;;7.77;4.27;;;;;;;29.81;44.46;97087.69;5065662;28;20566;-76
2023/08/18 09:52:05;;;;;;;9.80;4.80;;;;;;;29.89;43.95;97090.25;5065299;28;20197;-78
2023/08/18 09:54:43;;;;;;;6.47;4.10;;;;;;;29.71;44.53;97094.16;5067305;28;20660;-77
2023/08/18 09:57:45;;;;;;;5.10;4.30;;;;;;;29.14;45.53;97079.00;5066511;28;20216;-77
2023/08/18 10:00:14;;;;;;;5.03;4.10;;;;;;;29.10;45.20;97067.84;5065584;28;20201;-77
2023/08/18 10:02:44;;;;;;;6.60;4.90;;;;;;;29.23;45.38;97065.41;5067363;28;20196;-81
2023/08/18 10:05:14;;;;;;;7.67;4.67;;;;;;;29.07;45.56;97025.56;5099896;28;20185;-75
2023/08/18 10:07:41;;;;;;;7.83;4.30;;;;;;;29.07;46.28;97036.22;5065896;28;20185;-78
2023/08/18 10:10:08;;;;;;;7.77;4.93;;;;;;;29.06;45.84;97028.41;5103731;28;20205;-75
2023/08/18 10:12:35;;;;;;;9.67;5.13;;;;;;;29.19;43.36;97034.78;5073886;28;20264;-77
2023/08/18 10:15:03;;;;;;;6.37;4.13;;;;;;;29.16;42.44;97051.13;5070501;28;20193;-74
2023/08/18 10:17:30;;;;;;;7.00;4.27;;;;;;;29.34;42.95;97075.63;5065732;28;20229;-78
2023/08/18 10:20:00;;;;;;;18.23;5.90;;;;;;;29.85;42.38;97097.81;5067659;28;20196;-75
2023/08/18 10:22:30;;;;;;;11.80;4.97;;;;;;;30.20;43.79;97104.97;5066896;28;20193;-80
2023/08/18 10:24:58;;;;;;;11.10;5.20;;;;;;;30.51;44.46;97096.66;5066812;28;20204;-75
2023/08/18 10:27:27;;;;;;;12.70;5.53;;;;;;;30.85;44.41;97095.94;5067924;28;20698;-82
2023/08/18 10:30:00;;;;;;;6.43;4.37;;;;;;;30.69;37.92;97093.50;5067146;28;20185;-78
2023/08/18 10:32:32;;;;;;;7.67;4.43;;;;;;;30.81;38.22;97097.31;5066900;28;20708;-77
2023/08/18 10:35:22;;;;;;;4.77;3.60;;;;;;;31.08;38.34;97102.66;5067200;28;20189;-76
2023/08/18 10:37:51;;;;;;;9.67;4.43;;;;;;;31.22;38.03;97090.19;5066555;28;20228;-77
2023/08/18 10:40:31;;;;;;;8.33;4.57;;;;;;;31.52;37.26;97091.63;5066859;28;20196;-77
2023/08/18 10:43:02;;;;;;;6.73;4.50;;;;;;;31.68;36.57;97096.63;5066491;28;20220;-77
2023/08/18 10:45:30;;;;;;;9.37;4.73;;;;;;;31.31;37.19;97089.84;5065067;28;20592;-82
2023/08/18 10:48:01;;;;;;;4.83;3.77;;;;;;;30.75;38.64;97096.22;5066188;28;20189;-79
2023/08/18 10:50:29;;;;;;;7.10;3.90;;;;;;;30.29;38.64;97103.00;5065978;28;20223;-76
2023/08/18 10:52:57;;;;;;;10.50;4.60;;;;;;;30.57;38.64;97093.19;5065756;28;20188;-76
2023/08/18 10:55:25;;;;;;;5.17;4.10;;;;;;;30.87;38.07;97075.97;5067032;28;20645;-75
2023/08/18 10:57:52;;;;;;;4.63;4.23;;;;;;;31.24;38.13;97083.59;5067162;28;20209;-83
2023/08/18 11:00:19;;;;;;;5.57;4.13;;;;;;;31.41;36.95;97078.78;5066570;28;20189;-81
2023/08/18 11:02:51;;;;;;;11.23;4.30;;;;;;;31.64;36.73;97052.50;5049621;28;20192;-82
2023/08/18 11:05:20;;;;;;;5.63;4.07;;;;;;;32.04;36.74;97058.84;5065692;28;20185;-83
2023/08/18 11:07:47;;;;;;;6.95;4.03;;;;;;;32.04;37.14;97077.59;5067454;28;20224;-76
2023/08/18 11:10:23;;;;;;;8.77;4.55;;;;;;;32.00;36.46;97079.88;5067424;28;20239;-76
2023/08/18 11:12:56;;;;;;;5.63;5.05;;;;;;;31.48;37.38;97060.91;5066584;28;20284;-84
2023/08/18 11:15:24;;;;;;;6.63;4.43;;;;;;;31.19;38.07;97074.53;5066530;28;20764;-80
2023/08/18 11:17:51;;;;;;;6.15;4.22;;;;;;;30.75;39.00;97066.00;5066876;28;20731;-79
2023/08/18 11:20:19;;;;;;;5.68;4.90;;;;;;;31.00;39.10;97064.53;5065899;28;20189;-78
2023/08/18 11:22:53;;;;;;;7.50;4.40;;;;;;;31.28;38.07;97059.97;5065284;28;20232;-75
2023/08/18 11:25:24;;;;;;;5.15;4.03;;;;;;;31.19;38.53;97064.66;5066043;28;20638;-75
2023/08/18 11:27:53;;;;;;;5.53;4.67;;;;;;;31.43;39.01;97076.72;5066589;28;20216;-74
2023/08/18 11:30:22;;;;;;;7.27;4.43;;;;;;;31.00;39.00;97070.72;5066414;28;20185;-75
2023/08/18 11:32:49;;;;;;;5.25;4.15;;;;;;;31.61;38.60;97074.34;5067120;28;20248;-83
2023/08/18 11:35:18;;;;;;;7.57;4.03;;;;;;;31.68;38.78;97067.16;5068658;28;20280;-80
2023/08/18 11:37:47;;;;;;;8.45;4.65;;;;;;;31.98;38.15;97068.50;5067049;28;20221;-78
2023/08/18 11:40:19;;;;;;;5.60;3.90;;;;;;;32.31;37.39;97065.06;5064947;28;20296;-80
2023/08/18 11:42:50;;;;;;;8.35;4.00;;;;;;;32.50;36.90;97057.03;5065564;28;20239;-76
2023/08/18 11:45:24;;;;;;;6.75;4.10;;;;;;;32.00;37.77;97076.34;5067380;28;20656;-84
2023/08/18 11:48:05;;;;;;;8.63;4.47;;;;;;;31.60;37.92;97070.00;5062920;28;20215;-84